Vohburg — V2OW7 — position and weather

sailwx.info

Track history (hours):
 
Tides and Currents Weather Stations Pressure Air Temp Water Temp Dewpoint Dewpoint Depression Visibility Wind Speed Wind Dir Waves Ship Positions

Vohburg

Last reported at 2016-May-02 18:34 UTC. Time now 2016-May-02 19:23 UTC.
Position N 56°35' E 012°01'.

Length 140 m; draft 7.4 m.

Type: Cargo ship. MMSI: 305773000.

Date/timePositionNaut miles runAvg speedWind from/ knotsBaromVisibWave heightAir tempDewpointWater temp
2016-May-02 18:34N 56°35' E 012°01'1816.6
2016-May-02 17:29N 56°19' E 012°18'1617.0
2016-May-02 16:33N 56°07' E 012°34'1616.4
2016-May-02 15:34N 55°51' E 012°44'1515.1
2016-May-02 14:33N 55°36' E 012°42'1413.6
2016-May-02 13:33N 55°23' E 012°40'1312.9
2016-May-02 12:33N 55°15' E 012°59'1615.7
2016-May-02 11:33N 55°14' E 013°27'1615.9
2016-May-02 10:33N 55°14' E 013°55'1514.7
2016-May-02 09:33N 55°17' E 014°20'1515.3
2016-May-02 08:34N 55°27' E 014°39'1515.3
2016-May-02 07:33N 55°35' E 015°02'1515.2
2016-May-02 06:33N 55°43' E 015°26'1515.3
2016-May-02 05:33N 55°50' E 015°50'1515.1
2016-May-02 04:33N 55°57' E 016°13'268 6.4
2016-Apr-30 10:23N 59°15' E 021°52'4315.0
2016-Apr-30 07:33N 59°36' E 023°05'1515.3
2016-Apr-30 06:33N 59°40' E 023°34'1515.0
2016-Apr-30 05:33N 59°44' E 024°03'7515.1
2016-Apr-30 00:34N 60°01' E 026°29'1714.9
2016-Apr-29 23:25N 59°60' E 027°03'1315.2
2016-Apr-29 22:33N 60°06' E 027°25'1414.5
2016-Apr-29 21:33N 60°11' E 027°53'1514.8
2016-Apr-29 20:33N 60°06' E 028°21'1514.8
2016-Apr-29 19:33N 60°03' E 028°50'1615.4
2016-Apr-29 18:30N 60°02' E 029°22'1011.2
2016-Apr-29 17:33N 59°59' E 029°43'1 1.0
2016-Apr-29 16:31N 60°00' E 029°43'0 0.0
2016-Apr-29 15:31N 60°00' E 029°43'0 0.0
2016-Apr-29 14:28N 60°00' E 029°43'0 0.0
2016-Apr-29 13:31N 60°00' E 029°43'0 0.0
2016-Apr-29 12:10N 60°00' E 029°43'0 0.0
2016-Apr-29 11:31N 60°00' E 029°43'0 0.0
2016-Apr-29 10:31N 60°00' E 029°43'0 0.0
2016-Apr-29 09:31N 60°00' E 029°43'0 0.0
2016-Apr-29 08:31N 60°00' E 029°43'0 0.0
2016-Apr-29 07:28N 60°00' E 029°43'0 0.0
2016-Apr-29 06:33N 60°00' E 029°43'0 0.0
2016-Apr-29 05:33N 60°00' E 029°43'0 0.0
2016-Apr-29 04:33N 60°00' E 029°43'7 6.8
2016-Apr-29 03:33N 60°01' E 029°29'1414.4
2016-Apr-29 02:33N 60°02' E 029°01'1616.4
2016-Apr-29 01:33N 60°03' E 028°28'1515.0
2016-Apr-29 00:33N 60°09' E 028°01'1414.3
2016-Apr-28 23:33N 60°07' E 027°32'1715.5
2016-Apr-28 22:27N 59°58' E 027°03'1415.3
2016-Apr-28 21:33N 59°59' E 026°35'72 3.8
2016-Apr-28 02:32N 59°42' E 024°15'1616.4
2016-Apr-28 01:33N 59°37' E 023°45'1716.6
2016-Apr-28 00:33N 59°32' E 023°14'336 8.3
2016-Apr-26 08:13N 55°42' E 015°36'1015.5
2016-Apr-26 07:33N 55°37' E 015°20'1615.6
2016-Apr-26 06:34N 55°29' E 014°56'1515.4
2016-Apr-26 05:34N 55°20' E 014°35'1615.9
2016-Apr-26 04:33N 55°08' E 014°16'1515.2
2016-Apr-26 03:33N 54°60' E 013°54'1515.3
2016-Apr-26 02:33N 54°54' E 013°29'4515.1
2016-Apr-25 23:33N 54°34' E 012°19'1514.7
2016-Apr-25 22:33N 54°23' E 012°02'1616.4
2016-Apr-25 21:33N 54°15' E 011°37'1616.3
2016-Apr-25 20:33N 54°06' E 011°14'4 0.7
2016-Apr-25 14:19N 54°06' E 011°07'1316.7
2016-Apr-25 13:34N 54°16' E 011°21'1616.0
2016-Apr-25 12:33N 54°32' E 011°20'1717.4
2016-Apr-25 11:34N 54°34' E 010°51'1717.4
2016-Apr-25 10:34N 54°30' E 010°21'1110.9
2016-Apr-25 09:33N 54°22' E 010°09'2 1.6
2016-Apr-25 08:33N 54°22' E 010°06'7 7.1
2016-Apr-25 07:33N 54°21' E 009°54'19 6.2
2016-Apr-25 04:32N 54°11' E 009°27'6 6.1
2016-Apr-25 03:33N 54°07' E 009°20'7 7.3
2016-Apr-25 02:34N 53°60' E 009°17'7 7.3
2016-Apr-25 01:33N 53°54' E 009°09'1 1.3
2016-Apr-25 00:33N 53°53' E 009°07'6 6.1
2016-Apr-24 23:34N 53°51' E 008°58'1717.0
2016-Apr-24 22:34N 53°58' E 008°32'1818.1
2016-Apr-24 21:34N 53°58' E 008°01'1818.1
2016-Apr-24 20:33N 53°54' E 007°31'1817.6
2016-Apr-24 19:33N 53°51' E 007°02'1717.0
2016-Apr-24 18:33N 53°47' E 006°34'1616.5
2016-Apr-24 17:33N 53°41' E 006°08'1616.3
2016-Apr-24 16:34N 53°36' E 005°41'1616.1
2016-Apr-24 15:33N 53°32' E 005°15'3214.6
2016-Apr-24 13:20N 53°12' E 004°32'1114.4
2016-Apr-24 12:33N 53°02' E 004°23'1514.2
2016-Apr-24 11:30N 52°49' E 004°12'1414.6
2016-Apr-24 10:33N 52°38' E 003°59'1514.9
2016-Apr-24 09:31N 52°26' E 003°42'1815.2
2016-Apr-24 08:20N 52°10' E 003°30'2815.8
2016-Apr-24 06:32N 51°44' E 003°09'1717.0
2016-Apr-24 05:32N 51°32' E 002°50'9 8.7
2016-Apr-24 04:30N 51°24' E 002°44'1414.6
2016-Apr-24 03:33N 51°24' E 003°06'4 4.2
2016-Apr-24 02:29N 51°21' E 003°11'0 0.0
2016-Apr-24 01:30N 51°21' E 003°11'0 0.0
2016-Apr-24 00:33N 51°21' E 003°11'0 0.0
2016-Apr-23 23:30N 51°21' E 003°11'0 0.0
2016-Apr-23 22:27N 51°21' E 003°11'0 0.0
2016-Apr-23 21:11N 51°21' E 003°11'0 0.0
2016-Apr-23 20:29N 51°21' E 003°11'0 0.0
2016-Apr-23 19:26N 51°21' E 003°11'0 0.0
2016-Apr-23 18:29N 51°21' E 003°11'0 0.0
2016-Apr-23 17:23N 51°21' E 003°11'0 0.0
2016-Apr-23 16:29N 51°21' E 003°11'0 0.0
2016-Apr-23 15:32N 51°21' E 003°11'0 0.0
2016-Apr-23 14:26N 51°21' E 003°11'0 0.0
2016-Apr-23 13:23N 51°21' E 003°11'0 0.0
2016-Apr-23 12:07N 51°21' E 003°11'0 0.0
2016-Apr-23 11:25N 51°21' E 003°11'0 0.0
2016-Apr-23 10:24N 51°21' E 003°11'0 0.0
2016-Apr-23 09:27N 51°21' E 003°11'0 0.0
2016-Apr-23 08:27N 51°21' E 003°11'0 0.0
2016-Apr-23 07:33N 51°21' E 003°11'0 0.0
2016-Apr-23 06:29N 51°21' E 003°11'0 0.0
2016-Apr-23 04:32N 51°21' E 003°11'0 0.0
2016-Apr-23 03:32N 51°21' E 003°11'0 0.0
2016-Apr-23 02:29N 51°21' E 003°11'0 0.0
2016-Apr-23 01:26N 51°21' E 003°11'0 0.0
2016-Apr-23 00:32N 51°21' E 003°11'9 9.0
2016-Apr-22 23:33N 51°23' E 002°57'1615.4
2016-Apr-22 22:32N 51°22' E 002°32'1515.6
2016-Apr-22 21:33N 51°20' E 002°08'1616.2
2016-Apr-22 20:33N 51°23' E 001°43'1514.8
2016-Apr-22 19:33N 51°29' E 001°20'1615.9
2016-Apr-22 18:34N 51°29' E 000°55'  
Track history (hours):
 
Tides and Currents Weather Stations Pressure Air Temp Water Temp Dewpoint Dewpoint Depression Visibility Wind Speed Wind Dir Waves Ship Positions

Vohburg

Last reported at 2016-May-02 18:34 UTC. Time now 2016-May-02 19:23 UTC.
Position N 56°35' E 012°01'.

Length 140 m; draft 7.4 m.

Type: Cargo ship. MMSI: 305773000.

Date/timePositionNaut miles runAvg speedWind from/ knotsBaromVisibWave heightAir tempDewpointWater temp
2016-May-02 18:34N 56°35' E 012°01'1816.6
2016-May-02 17:29N 56°19' E 012°18'1617.0
2016-May-02 16:33N 56°07' E 012°34'1616.4
2016-May-02 15:34N 55°51' E 012°44'1515.1
2016-May-02 14:33N 55°36' E 012°42'1413.6
2016-May-02 13:33N 55°23' E 012°40'1312.9
2016-May-02 12:33N 55°15' E 012°59'1615.7
2016-May-02 11:33N 55°14' E 013°27'1615.9
2016-May-02 10:33N 55°14' E 013°55'1514.7
2016-May-02 09:33N 55°17' E 014°20'1515.3
2016-May-02 08:34N 55°27' E 014°39'1515.3
2016-May-02 07:33N 55°35' E 015°02'1515.2
2016-May-02 06:33N 55°43' E 015°26'1515.3
2016-May-02 05:33N 55°50' E 015°50'1515.1
2016-May-02 04:33N 55°57' E 016°13'268 6.4
2016-Apr-30 10:23N 59°15' E 021°52'4315.0
2016-Apr-30 07:33N 59°36' E 023°05'1515.3
2016-Apr-30 06:33N 59°40' E 023°34'1515.0
2016-Apr-30 05:33N 59°44' E 024°03'7515.1
2016-Apr-30 00:34N 60°01' E 026°29'1714.9
2016-Apr-29 23:25N 59°60' E 027°03'1315.2
2016-Apr-29 22:33N 60°06' E 027°25'1414.5
2016-Apr-29 21:33N 60°11' E 027°53'1514.8
2016-Apr-29 20:33N 60°06' E 028°21'1514.8
2016-Apr-29 19:33N 60°03' E 028°50'1615.4
2016-Apr-29 18:30N 60°02' E 029°22'1011.2
2016-Apr-29 17:33N 59°59' E 029°43'1 1.0
2016-Apr-29 16:31N 60°00' E 029°43'0 0.0
2016-Apr-29 15:31N 60°00' E 029°43'0 0.0
2016-Apr-29 14:28N 60°00' E 029°43'0 0.0
2016-Apr-29 13:31N 60°00' E 029°43'0 0.0
2016-Apr-29 12:10N 60°00' E 029°43'0 0.0
2016-Apr-29 11:31N 60°00' E 029°43'0 0.0
2016-Apr-29 10:31N 60°00' E 029°43'0 0.0
2016-Apr-29 09:31N 60°00' E 029°43'0 0.0
2016-Apr-29 08:31N 60°00' E 029°43'0 0.0
2016-Apr-29 07:28N 60°00' E 029°43'0 0.0
2016-Apr-29 06:33N 60°00' E 029°43'0 0.0
2016-Apr-29 05:33N 60°00' E 029°43'0 0.0
2016-Apr-29 04:33N 60°00' E 029°43'7 6.8
2016-Apr-29 03:33N 60°01' E 029°29'1414.4
2016-Apr-29 02:33N 60°02' E 029°01'1616.4
2016-Apr-29 01:33N 60°03' E 028°28'1515.0
2016-Apr-29 00:33N 60°09' E 028°01'1414.3
2016-Apr-28 23:33N 60°07' E 027°32'1715.5
2016-Apr-28 22:27N 59°58' E 027°03'1415.3
2016-Apr-28 21:33N 59°59' E 026°35'72 3.8
2016-Apr-28 02:32N 59°42' E 024°15'1616.4
2016-Apr-28 01:33N 59°37' E 023°45'1716.6
2016-Apr-28 00:33N 59°32' E 023°14'336 8.3
2016-Apr-26 08:13N 55°42' E 015°36'1015.5
2016-Apr-26 07:33N 55°37' E 015°20'1615.6
2016-Apr-26 06:34N 55°29' E 014°56'1515.4
2016-Apr-26 05:34N 55°20' E 014°35'1615.9
2016-Apr-26 04:33N 55°08' E 014°16'1515.2
2016-Apr-26 03:33N 54°60' E 013°54'1515.3
2016-Apr-26 02:33N 54°54' E 013°29'4515.1
2016-Apr-25 23:33N 54°34' E 012°19'1514.7
2016-Apr-25 22:33N 54°23' E 012°02'1616.4
2016-Apr-25 21:33N 54°15' E 011°37'1616.3
2016-Apr-25 20:33N 54°06' E 011°14'4 0.7
2016-Apr-25 14:19N 54°06' E 011°07'1316.7
2016-Apr-25 13:34N 54°16' E 011°21'1616.0
2016-Apr-25 12:33N 54°32' E 011°20'1717.4
2016-Apr-25 11:34N 54°34' E 010°51'1717.4
2016-Apr-25 10:34N 54°30' E 010°21'1110.9
2016-Apr-25 09:33N 54°22' E 010°09'2 1.6
2016-Apr-25 08:33N 54°22' E 010°06'7 7.1
2016-Apr-25 07:33N 54°21' E 009°54'19 6.2
2016-Apr-25 04:32N 54°11' E 009°27'6 6.1
2016-Apr-25 03:33N 54°07' E 009°20'7 7.3
2016-Apr-25 02:34N 53°60' E 009°17'7 7.3
2016-Apr-25 01:33N 53°54' E 009°09'1 1.3
2016-Apr-25 00:33N 53°53' E 009°07'6 6.1
2016-Apr-24 23:34N 53°51' E 008°58'1717.0
2016-Apr-24 22:34N 53°58' E 008°32'1818.1
2016-Apr-24 21:34N 53°58' E 008°01'1818.1
2016-Apr-24 20:33N 53°54' E 007°31'1817.6
2016-Apr-24 19:33N 53°51' E 007°02'1717.0
2016-Apr-24 18:33N 53°47' E 006°34'1616.5
2016-Apr-24 17:33N 53°41' E 006°08'1616.3
2016-Apr-24 16:34N 53°36' E 005°41'1616.1
2016-Apr-24 15:33N 53°32' E 005°15'3214.6
2016-Apr-24 13:20N 53°12' E 004°32'1114.4
2016-Apr-24 12:33N 53°02' E 004°23'1514.2
2016-Apr-24 11:30N 52°49' E 004°12'1414.6
2016-Apr-24 10:33N 52°38' E 003°59'1514.9
2016-Apr-24 09:31N 52°26' E 003°42'1815.2
2016-Apr-24 08:20N 52°10' E 003°30'2815.8
2016-Apr-24 06:32N 51°44' E 003°09'1717.0
2016-Apr-24 05:32N 51°32' E 002°50'9 8.7
2016-Apr-24 04:30N 51°24' E 002°44'1414.6
2016-Apr-24 03:33N 51°24' E 003°06'4 4.2
2016-Apr-24 02:29N 51°21' E 003°11'0 0.0
2016-Apr-24 01:30N 51°21' E 003°11'0 0.0
2016-Apr-24 00:33N 51°21' E 003°11'0 0.0
2016-Apr-23 23:30N 51°21' E 003°11'0 0.0
2016-Apr-23 22:27N 51°21' E 003°11'0 0.0
2016-Apr-23 21:11N 51°21' E 003°11'0 0.0
2016-Apr-23 20:29N 51°21' E 003°11'0 0.0
2016-Apr-23 19:26N 51°21' E 003°11'0 0.0
2016-Apr-23 18:29N 51°21' E 003°11'0 0.0
2016-Apr-23 17:23N 51°21' E 003°11'0 0.0
2016-Apr-23 16:29N 51°21' E 003°11'0 0.0
2016-Apr-23 15:32N 51°21' E 003°11'0 0.0
2016-Apr-23 14:26N 51°21' E 003°11'0 0.0
2016-Apr-23 13:23N 51°21' E 003°11'0 0.0
2016-Apr-23 12:07N 51°21' E 003°11'0 0.0
2016-Apr-23 11:25N 51°21' E 003°11'0 0.0
2016-Apr-23 10:24N 51°21' E 003°11'0 0.0
2016-Apr-23 09:27N 51°21' E 003°11'0 0.0
2016-Apr-23 08:27N 51°21' E 003°11'0 0.0
2016-Apr-23 07:33N 51°21' E 003°11'0 0.0
2016-Apr-23 06:29N 51°21' E 003°11'0 0.0
2016-Apr-23 04:32N 51°21' E 003°11'0 0.0
2016-Apr-23 03:32N 51°21' E 003°11'0 0.0
2016-Apr-23 02:29N 51°21' E 003°11'0 0.0
2016-Apr-23 01:26N 51°21' E 003°11'0 0.0
2016-Apr-23 00:32N 51°21' E 003°11'9 9.0
2016-Apr-22 23:33N 51°23' E 002°57'1615.4
2016-Apr-22 22:32N 51°22' E 002°32'1515.6
2016-Apr-22 21:33N 51°20' E 002°08'1616.2
2016-Apr-22 20:33N 51°23' E 001°43'1514.8
2016-Apr-22 19:33N 51°29' E 001°20'1615.9
2016-Apr-22 18:34N 51°29' E 000°55'  

Dump ship's entire track history